createdAt,value
2019-03-28T00:00:24.488Z,0.00
2019-03-28T00:01:24.446Z,0.00
2019-03-28T00:02:24.429Z,0.00
2019-03-28T00:03:24.421Z,0.00
2019-03-28T00:04:24.404Z,0.00
2019-03-28T00:05:24.397Z,0.00
2019-03-28T00:06:24.398Z,0.00
2019-03-28T00:07:24.457Z,0.00
2019-03-28T00:08:24.369Z,0.00
2019-03-28T00:09:24.356Z,0.00
2019-03-28T00:10:24.351Z,0.00
2019-03-28T00:11:24.369Z,0.00
2019-03-28T00:12:24.323Z,0.00
2019-03-28T00:13:24.315Z,0.00
2019-03-28T00:14:24.296Z,0.00
2019-03-28T00:15:24.308Z,0.00
2019-03-28T00:16:24.318Z,0.00
2019-03-28T00:17:24.266Z,0.00
2019-03-28T00:18:24.255Z,0.00
2019-03-28T00:19:24.248Z,0.00
2019-03-28T00:20:24.233Z,0.00
2019-03-28T00:21:24.223Z,0.00
2019-03-28T00:22:24.224Z,0.00
2019-03-28T00:23:34.297Z,0.00
2019-03-28T00:24:24.198Z,0.00
2019-03-28T00:25:24.186Z,0.00
2019-03-28T00:26:29.927Z,0.00
2019-03-28T00:27:25.156Z,0.00
2019-03-28T00:28:24.151Z,0.00
2019-03-28T00:29:24.140Z,0.00
2019-03-28T00:30:24.126Z,0.00
2019-03-28T00:31:24.116Z,0.00
2019-03-28T00:32:24.143Z,0.00
2019-03-28T00:33:24.094Z,0.00
2019-03-28T00:34:24.085Z,0.00
2019-03-28T00:35:24.082Z,0.00
2019-03-28T00:36:24.062Z,0.00
2019-03-28T00:37:24.054Z,0.00
2019-03-28T00:38:24.082Z,0.00
2019-03-28T00:39:24.036Z,0.00
2019-03-28T00:40:24.021Z,0.00
2019-03-28T00:41:24.012Z,0.00
2019-03-28T00:42:24.000Z,0.00
2019-03-28T00:43:23.992Z,0.00
2019-03-28T00:44:23.989Z,0.00
2019-03-28T00:45:23.965Z,0.00
2019-03-28T00:46:23.955Z,0.00
2019-03-28T00:47:23.941Z,0.00
2019-03-28T00:48:24.111Z,0.00
2019-03-28T00:49:23.920Z,0.00
2019-03-28T00:50:23.909Z,0.00
2019-03-28T00:51:23.896Z,0.00
2019-03-28T00:52:23.888Z,0.00
2019-03-28T00:53:23.880Z,0.00
2019-03-28T00:54:34.532Z,0.00
2019-03-28T00:55:23.855Z,0.00
2019-03-28T00:56:23.847Z,0.00
2019-03-28T00:57:23.838Z,0.00
2019-03-28T00:58:23.824Z,0.00
2019-03-28T00:59:24.274Z,0.00
2019-03-28T01:00:23.805Z,0.00
2019-03-28T01:01:23.792Z,0.00
2019-03-28T01:02:23.778Z,0.00
2019-03-28T01:03:23.771Z,0.00
2019-03-28T01:04:23.758Z,0.00
2019-03-28T01:05:23.790Z,0.00
2019-03-28T01:06:23.734Z,0.00
2019-03-28T01:07:23.722Z,0.00
2019-03-28T01:08:23.716Z,0.00
2019-03-28T01:09:23.702Z,0.00
2019-03-28T01:10:23.690Z,0.00
2019-03-28T01:11:23.721Z,0.00
2019-03-28T01:12:23.676Z,0.00
2019-03-28T01:13:23.657Z,0.00
2019-03-28T01:14:23.653Z,0.00
2019-03-28T01:15:23.634Z,0.00
2019-03-28T01:16:23.626Z,0.00
2019-03-28T01:17:23.655Z,0.00
2019-03-28T01:18:23.603Z,0.00
2019-03-28T01:19:23.591Z,0.00
2019-03-28T01:20:23.585Z,0.00
2019-03-28T01:21:23.577Z,0.00
2019-03-28T01:22:23.563Z,0.00
2019-03-28T01:23:23.558Z,0.00
2019-03-28T01:24:23.542Z,0.00
2019-03-28T01:25:34.625Z,0.00
2019-03-28T01:26:23.566Z,0.00
2019-03-28T01:27:23.506Z,0.00
2019-03-28T01:28:23.505Z,0.00
2019-03-28T01:29:23.487Z,0.00
2019-03-28T01:30:23.478Z,0.00
2019-03-28T01:31:23.466Z,0.00
2019-03-28T01:32:23.462Z,0.00
2019-03-28T01:33:23.449Z,0.00
2019-03-28T01:34:23.439Z,0.00
2019-03-28T01:35:23.427Z,0.00
2019-03-28T01:36:23.408Z,0.00
2019-03-28T01:37:23.402Z,0.00
2019-03-28T01:38:23.390Z,0.00
2019-03-28T01:39:23.415Z,0.00
2019-03-28T01:40:23.365Z,0.00
2019-03-28T01:41:23.358Z,0.00
2019-03-28T01:42:23.350Z,0.00
2019-03-28T01:43:23.341Z,0.00
2019-03-28T01:44:23.330Z,0.00
2019-03-28T01:45:23.332Z,0.00
2019-03-28T01:46:23.306Z,0.00
2019-03-28T01:47:23.294Z,0.00
2019-03-28T01:48:23.283Z,0.00
2019-03-28T01:49:23.272Z,0.00
2019-03-28T01:50:23.306Z,0.00
2019-03-28T01:51:23.251Z,0.00
2019-03-28T01:52:23.243Z,0.00
2019-03-28T01:53:23.232Z,0.00
2019-03-28T01:54:23.221Z,0.00
2019-03-28T01:55:23.214Z,0.00
2019-03-28T01:56:33.411Z,0.00
2019-03-28T01:57:23.185Z,0.00
2019-03-28T01:58:23.176Z,0.00
2019-03-28T01:59:23.165Z,0.00
2019-03-28T02:00:23.154Z,0.00
2019-03-28T02:01:23.139Z,0.00
2019-03-28T02:02:23.140Z,0.00
2019-03-28T02:03:23.127Z,0.00
2019-03-28T02:04:23.111Z,0.00
2019-03-28T02:05:23.096Z,0.00
2019-03-28T02:06:23.094Z,0.00
2019-03-28T02:07:23.122Z,0.00
2019-03-28T02:08:24.864Z,0.00
2019-03-28T02:09:23.061Z,0.00
2019-03-28T02:10:23.050Z,0.00
2019-03-28T02:11:23.038Z,0.00
2019-03-28T02:12:23.030Z,0.00
2019-03-28T02:13:23.053Z,0.00
2019-03-28T02:14:23.007Z,0.00
2019-03-28T02:15:22.992Z,0.00
2019-03-28T02:16:22.986Z,0.00
2019-03-28T02:17:22.972Z,0.00
2019-03-28T02:18:22.966Z,0.00
2019-03-28T02:19:22.994Z,0.00
2019-03-28T02:20:22.945Z,0.00
2019-03-28T02:21:22.932Z,0.00
2019-03-28T02:22:22.916Z,0.00
2019-03-28T02:23:22.906Z,0.00
2019-03-28T02:24:22.903Z,0.00
2019-03-28T02:25:22.928Z,0.00
2019-03-28T02:26:22.875Z,0.00
2019-03-28T02:27:33.247Z,0.00
2019-03-28T02:28:22.851Z,0.00
2019-03-28T02:29:22.843Z,0.00
2019-03-28T02:30:22.838Z,0.00
2019-03-28T02:31:22.863Z,0.00
2019-03-28T02:32:22.815Z,0.00
2019-03-28T02:33:22.804Z,0.00
2019-03-28T02:34:22.792Z,0.00
2019-03-28T02:35:22.781Z,0.00
2019-03-28T02:36:22.768Z,0.00
2019-03-28T02:37:22.772Z,0.00
2019-03-28T02:38:22.745Z,0.00
2019-03-28T02:39:22.743Z,0.00
2019-03-28T02:40:22.729Z,0.00
2019-03-28T02:41:22.762Z,0.00
2019-03-28T02:42:22.701Z,0.00
2019-03-28T02:43:22.720Z,0.00
2019-03-28T02:44:22.682Z,0.00
2019-03-28T02:45:22.686Z,0.00
2019-03-28T02:46:22.904Z,0.00
2019-03-28T02:47:22.695Z,0.00
2019-03-28T02:48:22.654Z,0.00
2019-03-28T02:49:22.634Z,0.00
2019-03-28T02:50:22.622Z,0.00
2019-03-28T02:51:22.610Z,0.00
2019-03-28T02:52:22.598Z,0.00
2019-03-28T02:53:22.653Z,0.00
2019-03-28T02:54:22.590Z,0.00
2019-03-28T02:55:23.699Z,0.00
2019-03-28T02:56:22.551Z,0.00
2019-03-28T02:57:22.545Z,0.00
2019-03-28T02:58:33.944Z,0.00
2019-03-28T02:59:22.522Z,0.00
2019-03-28T03:00:22.514Z,0.00
2019-03-28T03:01:22.504Z,0.00
2019-03-28T03:02:22.487Z,0.00
2019-03-28T03:03:22.516Z,0.00
2019-03-28T03:04:22.560Z,0.00
2019-03-28T03:05:22.456Z,0.00
2019-03-28T03:06:22.448Z,0.00
2019-03-28T03:07:22.438Z,0.00
2019-03-28T03:08:22.430Z,0.00
2019-03-28T03:09:22.456Z,0.00
2019-03-28T03:10:22.408Z,0.00
2019-03-28T03:11:22.398Z,0.00
2019-03-28T03:12:22.394Z,0.00
2019-03-28T03:13:22.379Z,0.00
2019-03-28T03:14:22.371Z,0.00
2019-03-28T03:15:22.362Z,0.00
2019-03-28T03:16:22.805Z,0.00
2019-03-28T03:17:22.338Z,0.00
2019-03-28T03:18:22.318Z,0.00
2019-03-28T03:19:22.327Z,0.00
2019-03-28T03:20:22.312Z,0.00
2019-03-28T03:21:22.291Z,0.00
2019-03-28T03:22:22.283Z,0.00
2019-03-28T03:23:22.272Z,0.00
2019-03-28T03:24:22.265Z,0.00
2019-03-28T03:25:22.292Z,0.00
2019-03-28T03:26:22.236Z,0.00
2019-03-28T03:27:22.232Z,0.00
2019-03-28T03:28:22.226Z,0.00
2019-03-28T03:29:32.393Z,0.00
2019-03-28T03:30:22.190Z,0.00
2019-03-28T03:31:22.563Z,0.00
2019-03-28T03:32:22.223Z,0.00
2019-03-28T03:33:22.162Z,0.00
2019-03-28T03:34:22.152Z,0.00
2019-03-28T03:35:22.139Z,0.00
2019-03-28T03:36:22.147Z,0.00
2019-03-28T03:37:22.118Z,0.00
2019-03-28T03:38:22.123Z,0.00
2019-03-28T03:39:22.102Z,0.00
2019-03-28T03:40:22.092Z,0.00
2019-03-28T03:41:22.077Z,0.00
2019-03-28T03:42:22.073Z,0.00
2019-03-28T03:43:23.168Z,0.00
2019-03-28T03:44:22.053Z,0.00
2019-03-28T03:45:22.032Z,0.00
2019-03-28T03:46:22.024Z,0.00
2019-03-28T03:47:22.009Z,0.00
2019-03-28T03:48:21.995Z,0.00
2019-03-28T03:49:22.034Z,0.00
2019-03-28T03:50:22.471Z,0.00
2019-03-28T03:51:21.965Z,0.00
2019-03-28T03:52:21.961Z,0.00
2019-03-28T03:53:21.944Z,0.00
2019-03-28T03:54:21.942Z,0.00
2019-03-28T03:55:21.938Z,0.00
2019-03-28T03:56:21.913Z,0.00
2019-03-28T03:57:21.905Z,0.00
2019-03-28T03:58:21.895Z,0.00
2019-03-28T03:59:21.882Z,0.00
2019-03-28T04:00:32.522Z,0.00
2019-03-28T04:01:21.863Z,0.00
2019-03-28T04:02:21.852Z,0.00
2019-03-28T04:03:21.840Z,0.00
2019-03-28T04:04:22.050Z,0.00
2019-03-28T04:05:21.819Z,0.00
2019-03-28T04:06:21.884Z,0.00
2019-03-28T04:07:21.797Z,0.00
2019-03-28T04:08:21.789Z,0.00
2019-03-28T04:09:21.778Z,0.00
2019-03-28T04:10:21.883Z,0.00
2019-03-28T04:11:21.761Z,0.00
2019-03-28T04:12:21.745Z,0.00
2019-03-28T04:13:21.738Z,0.00
2019-03-28T04:14:21.718Z,0.00
2019-03-28T04:15:21.718Z,0.00
2019-03-28T04:16:21.708Z,0.00
2019-03-28T04:17:21.934Z,0.00
2019-03-28T04:18:22.420Z,0.00
2019-03-28T04:19:21.672Z,0.00
2019-03-28T04:20:21.654Z,0.00
2019-03-28T04:21:21.670Z,0.00
2019-03-28T04:22:21.658Z,0.00
2019-03-28T04:23:21.634Z,0.00
2019-03-28T04:24:21.963Z,0.00
2019-03-28T04:25:21.607Z,0.00
2019-03-28T04:26:21.592Z,0.00
2019-03-28T04:27:21.624Z,0.00
2019-03-28T04:28:31.650Z,0.00
2019-03-28T04:29:22.564Z,0.00
2019-03-28T04:30:22.692Z,0.00
2019-03-28T04:31:33.634Z,0.00
2019-03-28T04:32:21.532Z,0.00
2019-03-28T04:33:21.531Z,0.00
2019-03-28T04:34:21.512Z,0.00
2019-03-28T04:35:21.496Z,0.00
2019-03-28T04:36:21.487Z,0.00
2019-03-28T04:37:21.482Z,0.00
2019-03-28T04:38:21.541Z,0.00
2019-03-28T04:39:21.454Z,0.00
2019-03-28T04:40:21.447Z,0.00
2019-03-28T04:41:21.438Z,0.00
2019-03-28T04:42:21.424Z,0.00
2019-03-28T04:43:21.422Z,0.00
2019-03-28T04:44:21.719Z,0.00
2019-03-28T04:45:21.394Z,0.00
2019-03-28T04:46:21.379Z,0.00
2019-03-28T04:47:21.373Z,0.00
2019-03-28T04:48:21.540Z,0.00
2019-03-28T04:49:21.351Z,0.00
2019-03-28T04:50:21.339Z,0.00
2019-03-28T04:51:21.331Z,0.00
2019-03-28T04:52:21.322Z,0.00
2019-03-28T04:53:21.311Z,0.00
2019-03-28T04:54:21.303Z,0.00
2019-03-28T04:55:21.408Z,0.00
2019-03-28T04:56:21.272Z,0.00
2019-03-28T04:57:21.269Z,0.00
2019-03-28T04:58:21.814Z,0.00
2019-03-28T04:59:21.250Z,0.00
2019-03-28T05:00:21.234Z,0.00
2019-03-28T05:01:21.231Z,0.00
2019-03-28T05:02:31.923Z,0.00
2019-03-28T05:03:21.199Z,0.00
2019-03-28T05:04:21.399Z,0.00
2019-03-28T05:05:21.181Z,0.00
2019-03-28T05:06:21.169Z,0.00
2019-03-28T05:07:21.173Z,0.00
2019-03-28T05:08:21.153Z,0.00
2019-03-28T05:09:21.138Z,0.00
2019-03-28T05:10:21.138Z,0.00
2019-03-28T05:11:21.117Z,0.00
2019-03-28T05:12:21.106Z,0.00
2019-03-28T05:13:21.096Z,0.00
2019-03-28T05:14:21.084Z,0.00
2019-03-28T05:15:21.088Z,0.00
2019-03-28T05:16:21.071Z,0.00
2019-03-28T05:17:21.055Z,0.00
2019-03-28T05:18:21.036Z,0.00
2019-03-28T05:19:21.029Z,0.00
2019-03-28T05:20:21.022Z,0.00
2019-03-28T05:21:21.021Z,0.00
2019-03-28T05:22:20.994Z,0.00
2019-03-28T05:23:20.989Z,0.00
2019-03-28T05:24:20.979Z,0.00
2019-03-28T05:25:20.968Z,0.00
2019-03-28T05:26:21.125Z,0.00
2019-03-28T05:27:20.942Z,0.00
2019-03-28T05:28:20.930Z,0.00
2019-03-28T05:29:20.922Z,0.00
2019-03-28T05:30:20.913Z,0.00
2019-03-28T05:31:20.905Z,0.00
2019-03-28T05:32:20.896Z,0.00
2019-03-28T05:33:31.596Z,0.00
2019-03-28T05:34:20.868Z,0.00
2019-03-28T05:35:20.865Z,0.00
2019-03-28T05:36:20.853Z,0.00
2019-03-28T05:37:21.102Z,0.00
2019-03-28T05:38:20.831Z,5.62
2019-03-28T05:39:20.815Z,5.62
2019-03-28T05:40:22.824Z,5.62
2019-03-28T05:41:20.797Z,5.62
2019-03-28T05:42:20.786Z,5.62
2019-03-28T05:43:20.811Z,5.62
2019-03-28T05:44:20.767Z,5.62
2019-03-28T05:45:20.762Z,5.62
2019-03-28T05:46:20.740Z,5.62
2019-03-28T05:47:22.303Z,5.62
2019-03-28T05:48:20.716Z,5.62
2019-03-28T05:49:20.735Z,5.62
2019-03-28T05:50:20.701Z,5.62
2019-03-28T05:51:20.685Z,5.62
2019-03-28T05:52:20.681Z,5.62
2019-03-28T05:53:20.754Z,5.62
2019-03-28T05:54:20.656Z,5.62
2019-03-28T05:55:20.680Z,5.62
2019-03-28T05:56:20.638Z,5.62
2019-03-28T05:57:20.628Z,5.62
2019-03-28T05:58:20.619Z,5.62
2019-03-28T05:59:20.608Z,5.62
2019-03-28T06:00:20.592Z,5.62
2019-03-28T06:01:20.596Z,5.62
2019-03-28T06:02:20.571Z,5.62
2019-03-28T06:03:20.557Z,5.62
2019-03-28T06:04:31.941Z,5.62
2019-03-28T06:05:20.548Z,5.62
2019-03-28T06:06:20.527Z,5.62
2019-03-28T06:07:20.518Z,5.62
2019-03-28T06:08:20.507Z,5.62
2019-03-28T06:09:20.500Z,5.62
2019-03-28T06:10:20.506Z,5.62
2019-03-28T06:11:20.480Z,5.62
2019-03-28T06:12:20.461Z,5.62
2019-03-28T06:13:20.453Z,5.62
2019-03-28T06:14:20.440Z,5.62
2019-03-28T06:15:20.436Z,5.62
2019-03-28T06:16:20.463Z,5.62
2019-03-28T06:17:20.410Z,5.62
2019-03-28T06:18:20.547Z,5.62
2019-03-28T06:19:20.392Z,5.62
2019-03-28T06:20:20.380Z,5.62
2019-03-28T06:21:21.356Z,5.62
2019-03-28T06:22:20.367Z,5.62
2019-03-28T06:23:20.355Z,5.62
2019-03-28T06:24:20.337Z,5.62
2019-03-28T06:25:20.327Z,5.62
2019-03-28T06:26:20.315Z,5.62
2019-03-28T06:27:20.344Z,5.62
2019-03-28T06:28:20.292Z,5.62
2019-03-28T06:29:24.135Z,5.62
2019-03-28T06:30:20.279Z,5.62
2019-03-28T06:31:20.266Z,5.62
2019-03-28T06:32:20.253Z,5.62
2019-03-28T06:33:20.255Z,5.62
2019-03-28T06:34:20.232Z,5.62
2019-03-28T06:35:31.409Z,5.62
2019-03-28T06:36:20.212Z,11.25
2019-03-28T06:37:20.202Z,11.25
2019-03-28T06:38:20.193Z,11.25
2019-03-28T06:39:20.193Z,11.25
2019-03-28T06:40:20.167Z,11.25
2019-03-28T06:41:20.165Z,11.25
2019-03-28T06:42:20.158Z,11.25
2019-03-28T06:43:20.143Z,11.25
2019-03-28T06:44:20.132Z,11.25
2019-03-28T06:45:20.129Z,11.25
2019-03-28T06:46:20.105Z,11.25
2019-03-28T06:47:21.199Z,11.25
2019-03-28T06:48:20.084Z,11.25
2019-03-28T06:49:20.171Z,11.25
2019-03-28T06:50:20.066Z,11.25
2019-03-28T06:51:20.047Z,11.25
2019-03-28T06:52:20.048Z,11.25
2019-03-28T06:53:20.029Z,11.25
2019-03-28T06:54:20.018Z,11.25
2019-03-28T06:55:20.024Z,5.62
2019-03-28T06:56:19.996Z,5.62
2019-03-28T06:57:19.984Z,11.25
2019-03-28T06:58:19.979Z,11.25
2019-03-28T06:59:19.970Z,11.25
2019-03-28T07:00:19.950Z,11.25
2019-03-28T07:01:20.125Z,11.25
2019-03-28T07:02:21.898Z,11.25
2019-03-28T07:03:19.925Z,11.25
2019-03-28T07:04:19.916Z,11.25
2019-03-28T07:05:19.905Z,11.25
2019-03-28T07:06:30.686Z,11.25
2019-03-28T07:07:19.878Z,5.62
2019-03-28T07:08:19.870Z,5.62
2019-03-28T07:09:19.863Z,5.62
2019-03-28T07:10:19.845Z,5.62
2019-03-28T07:11:19.838Z,5.62
2019-03-28T07:12:20.002Z,5.62
2019-03-28T07:13:19.823Z,5.62
2019-03-28T07:14:19.804Z,5.62
2019-03-28T07:15:20.470Z,5.62
2019-03-28T07:16:21.163Z,11.25
2019-03-28T07:17:19.781Z,11.25
2019-03-28T07:18:19.771Z,11.25
2019-03-28T07:19:19.760Z,11.25
2019-03-28T07:20:19.763Z,11.25
2019-03-28T07:21:19.735Z,11.25
2019-03-28T07:22:19.719Z,11.25
2019-03-28T07:23:19.720Z,11.25
2019-03-28T07:24:19.698Z,5.62
2019-03-28T07:25:19.685Z,5.62
2019-03-28T07:26:19.674Z,5.62
2019-03-28T07:27:19.662Z,11.25
2019-03-28T07:28:19.687Z,11.25
2019-03-28T07:29:19.643Z,11.25
2019-03-28T07:30:19.691Z,11.25
2019-03-28T07:31:19.624Z,11.25
2019-03-28T07:32:19.621Z,11.25
2019-03-28T07:33:19.607Z,11.25
2019-03-28T07:34:19.708Z,11.25
2019-03-28T07:35:19.580Z,11.25
2019-03-28T07:36:19.565Z,11.25
2019-03-28T07:37:30.700Z,11.25
2019-03-28T07:38:19.550Z,11.25
2019-03-28T07:39:19.571Z,11.25
2019-03-28T07:40:19.529Z,11.25
2019-03-28T07:41:19.514Z,11.25
2019-03-28T07:42:19.507Z,11.25
2019-03-28T07:43:19.499Z,11.25
2019-03-28T07:44:19.487Z,11.25
2019-03-28T07:45:19.500Z,11.25
2019-03-28T07:46:19.480Z,11.25
2019-03-28T07:47:19.448Z,11.25
2019-03-28T07:48:20.401Z,11.25
2019-03-28T07:49:19.995Z,11.25
2019-03-28T07:50:19.439Z,11.25
2019-03-28T07:51:19.429Z,11.25
2019-03-28T07:52:20.227Z,11.25
2019-03-28T07:53:19.908Z,5.62
2019-03-28T07:54:19.388Z,5.62
2019-03-28T07:55:19.370Z,11.25
2019-03-28T07:56:19.371Z,11.25
2019-03-28T07:57:19.360Z,11.25
2019-03-28T07:58:19.361Z,11.25
2019-03-28T07:59:19.322Z,16.88
2019-03-28T08:00:19.314Z,16.88
2019-03-28T08:01:19.310Z,16.88
2019-03-28T08:02:19.293Z,16.88
2019-03-28T08:03:19.287Z,16.88
2019-03-28T08:04:19.268Z,11.25
2019-03-28T08:05:19.262Z,11.25
2019-03-28T08:06:19.326Z,11.25
2019-03-28T08:07:19.243Z,11.25
2019-03-28T08:08:38.627Z,11.25
2019-03-28T08:09:20.228Z,11.25
2019-03-28T08:10:19.205Z,11.25
2019-03-28T08:11:19.310Z,11.25
2019-03-28T08:12:22.977Z,11.25
2019-03-28T08:13:19.172Z,11.25
2019-03-28T08:14:19.167Z,11.25
2019-03-28T08:15:19.153Z,11.25
2019-03-28T08:16:19.138Z,11.25
2019-03-28T08:17:19.253Z,11.25
2019-03-28T08:18:19.576Z,11.25
2019-03-28T08:19:19.108Z,11.25
2019-03-28T08:20:19.095Z,11.25
2019-03-28T08:21:19.093Z,16.88
2019-03-28T08:22:19.079Z,16.88
2019-03-28T08:23:19.078Z,16.88
2019-03-28T08:24:19.060Z,16.88
2019-03-28T08:25:19.044Z,11.25
2019-03-28T08:26:19.045Z,11.25
2019-03-28T08:27:19.027Z,16.88
2019-03-28T08:28:19.186Z,16.88
2019-03-28T08:29:19.007Z,11.25
2019-03-28T08:30:19.649Z,11.25
2019-03-28T08:31:18.986Z,11.25
2019-03-28T08:32:18.966Z,16.88
2019-03-28T08:33:18.956Z,16.88
2019-03-28T08:34:18.961Z,22.50
2019-03-28T08:35:18.936Z,22.50
2019-03-28T08:36:18.932Z,22.50
2019-03-28T08:37:18.915Z,22.50
2019-03-28T08:38:18.908Z,22.50
2019-03-28T08:39:29.286Z,22.50
2019-03-28T08:40:18.882Z,16.88
2019-03-28T08:41:19.654Z,16.88
2019-03-28T08:42:19.570Z,11.25
2019-03-28T08:43:18.853Z,11.25
2019-03-28T08:44:22.376Z,16.88
2019-03-28T08:45:18.880Z,16.88
2019-03-28T08:46:18.819Z,11.25
2019-03-28T08:47:18.817Z,11.25
2019-03-28T08:48:18.798Z,16.88
2019-03-28T08:49:18.789Z,16.88
2019-03-28T08:50:18.789Z,16.88
2019-03-28T08:51:18.965Z,16.88
2019-03-28T08:52:18.755Z,16.88
2019-03-28T08:53:18.790Z,16.88
2019-03-28T08:54:18.739Z,16.88
2019-03-28T08:55:18.782Z,16.88
2019-03-28T08:56:18.742Z,16.88
2019-03-28T08:57:18.711Z,16.88
2019-03-28T08:58:18.702Z,11.25
2019-03-28T08:59:18.678Z,11.25
2019-03-28T09:00:32.176Z,11.25
2019-03-28T09:01:19.662Z,11.25
2019-03-28T09:02:18.724Z,11.25
2019-03-28T09:03:18.642Z,11.25
2019-03-28T09:04:18.631Z,11.25
2019-03-28T09:05:18.630Z,11.25
2019-03-28T09:06:18.607Z,16.88
2019-03-28T09:07:18.598Z,16.88
2019-03-28T09:08:18.752Z,16.88
2019-03-28T09:09:21.179Z,16.88
2019-03-28T09:10:30.102Z,16.88
2019-03-28T09:11:21.353Z,16.88
2019-03-28T09:12:18.559Z,16.88
2019-03-28T09:13:18.538Z,16.88
2019-03-28T09:14:18.519Z,11.25
2019-03-28T09:15:18.507Z,11.25
2019-03-28T09:16:18.502Z,11.25
2019-03-28T09:17:18.493Z,11.25
2019-03-28T09:18:18.490Z,11.25
2019-03-28T09:19:18.476Z,11.25
2019-03-28T09:20:18.467Z,11.25
2019-03-28T09:21:18.447Z,11.25
2019-03-28T09:22:18.446Z,16.88
2019-03-28T09:23:42.143Z,16.88
2019-03-28T09:24:18.437Z,16.88
2019-03-28T09:25:18.408Z,16.88
2019-03-28T09:26:18.393Z,16.88
2019-03-28T09:27:18.386Z,16.88
2019-03-28T09:28:18.374Z,16.88
2019-03-28T09:29:18.417Z,16.88
2019-03-28T09:30:18.347Z,16.88
2019-03-28T09:31:20.109Z,16.88
2019-03-28T09:32:18.329Z,16.88
2019-03-28T09:33:18.315Z,16.88
2019-03-28T09:34:18.313Z,22.50
2019-03-28T09:35:18.335Z,22.50
2019-03-28T09:36:18.283Z,22.50
2019-03-28T09:37:18.272Z,22.50
2019-03-28T09:38:18.269Z,16.88
2019-03-28T09:39:18.254Z,16.88
2019-03-28T09:40:18.247Z,16.88
2019-03-28T09:41:18.325Z,16.88
2019-03-28T09:42:18.223Z,16.88
2019-03-28T09:43:18.212Z,16.88
2019-03-28T09:44:18.205Z,16.88
2019-03-28T09:45:18.186Z,16.88
2019-03-28T09:46:18.319Z,16.88
2019-03-28T09:47:18.164Z,16.88
2019-03-28T09:48:18.158Z,16.88
2019-03-28T09:49:18.149Z,16.88
2019-03-28T09:50:18.134Z,16.88
2019-03-28T09:51:18.163Z,16.88
2019-03-28T09:52:18.154Z,16.88
2019-03-28T09:53:18.100Z,16.88
2019-03-28T09:54:30.105Z,16.88
2019-03-28T09:55:19.029Z,16.88
2019-03-28T09:56:18.075Z,16.88
2019-03-28T09:57:18.062Z,16.88
2019-03-28T09:58:18.062Z,16.88
2019-03-28T09:59:18.072Z,16.88
2019-03-28T10:00:18.031Z,11.25
2019-03-28T10:01:18.020Z,11.25
2019-03-28T10:02:18.004Z,11.25
2019-03-28T10:03:18.172Z,16.88
2019-03-28T10:04:17.982Z,16.88
2019-03-28T10:05:17.973Z,16.88
2019-03-28T10:06:17.972Z,16.88
2019-03-28T10:07:17.952Z,16.88
2019-03-28T10:08:17.948Z,16.88
2019-03-28T10:09:17.938Z,16.88
2019-03-28T10:10:17.923Z,16.88
2019-03-28T10:11:17.916Z,16.88
2019-03-28T10:12:17.904Z,16.88
2019-03-28T10:13:17.927Z,16.88
2019-03-28T10:14:17.878Z,22.50
2019-03-28T10:15:18.102Z,22.50
2019-03-28T10:16:17.856Z,22.50
2019-03-28T10:17:17.849Z,22.50
2019-03-28T10:18:17.841Z,22.50
2019-03-28T10:19:17.866Z,22.50
2019-03-28T10:20:17.822Z,22.50
2019-03-28T10:21:17.801Z,22.50
2019-03-28T10:22:17.797Z,16.88
2019-03-28T10:23:17.789Z,16.88
2019-03-28T10:24:17.775Z,16.88
2019-03-28T10:25:28.345Z,16.88
2019-03-28T10:26:17.747Z,16.88
2019-03-28T10:27:19.225Z,16.88
2019-03-28T10:28:17.731Z,22.50
2019-03-28T10:29:17.719Z,22.50
2019-03-28T10:30:17.734Z,22.50
2019-03-28T10:31:17.699Z,28.12
2019-03-28T10:32:17.690Z,28.12
2019-03-28T10:33:17.699Z,28.12
2019-03-28T10:34:17.669Z,28.12
2019-03-28T10:35:17.661Z,28.12
2019-03-28T10:36:17.657Z,28.12
2019-03-28T10:37:17.649Z,22.50
2019-03-28T10:38:17.620Z,22.50
2019-03-28T10:39:17.620Z,22.50
2019-03-28T10:40:17.601Z,28.12
2019-03-28T10:41:17.600Z,33.75
2019-03-28T10:42:17.605Z,33.75
2019-03-28T10:43:17.565Z,33.75
2019-03-28T10:44:17.557Z,33.75
2019-03-28T10:45:17.547Z,39.38
2019-03-28T10:46:17.538Z,33.75
2019-03-28T10:47:17.700Z,33.75
2019-03-28T10:48:17.512Z,33.75
2019-03-28T10:49:17.500Z,28.12
2019-03-28T10:50:17.505Z,22.50
2019-03-28T10:51:17.480Z,22.50
2019-03-28T10:52:17.470Z,28.12
2019-03-28T10:53:17.477Z,28.12
2019-03-28T10:54:20.301Z,28.12
2019-03-28T10:55:17.439Z,28.12
2019-03-28T10:56:28.133Z,22.50
2019-03-28T10:57:29.410Z,16.88
2019-03-28T10:58:19.519Z,16.88
2019-03-28T10:59:23.506Z,16.88
2019-03-28T11:00:24.020Z,16.88
2019-03-28T11:01:36.017Z,16.88
2019-03-28T11:02:18.362Z,16.88
2019-03-28T11:03:17.351Z,16.88
2019-03-28T11:04:17.384Z,11.25
2019-03-28T11:05:17.332Z,11.25
2019-03-28T11:06:17.331Z,11.25
2019-03-28T11:07:17.321Z,11.25
2019-03-28T11:08:17.310Z,11.25
2019-03-28T11:09:17.291Z,11.25
2019-03-28T11:10:17.428Z,11.25
2019-03-28T11:11:17.271Z,11.25
2019-03-28T11:12:17.259Z,11.25
2019-03-28T11:13:17.251Z,11.25
2019-03-28T11:14:17.233Z,11.25
2019-03-28T11:15:17.222Z,11.25
2019-03-28T11:16:17.226Z,11.25
2019-03-28T11:17:17.203Z,11.25
2019-03-28T11:18:17.204Z,11.25
2019-03-28T11:19:17.652Z,11.25
2019-03-28T11:20:17.176Z,11.25
2019-03-28T11:21:17.160Z,11.25
2019-03-28T11:22:17.149Z,11.25
2019-03-28T11:23:17.138Z,11.25
2019-03-28T11:24:17.127Z,11.25
2019-03-28T11:25:17.129Z,11.25
2019-03-28T11:26:17.107Z,11.25
2019-03-28T11:27:27.101Z,11.25
2019-03-28T11:28:17.121Z,11.25
2019-03-28T11:29:17.079Z,11.25
2019-03-28T11:30:18.533Z,11.25
2019-03-28T11:31:17.712Z,11.25
2019-03-28T11:32:17.041Z,11.25
2019-03-28T11:33:17.032Z,11.25
2019-03-28T11:34:17.032Z,11.25
2019-03-28T11:35:17.059Z,11.25
2019-03-28T11:36:17.007Z,11.25
2019-03-28T11:37:25.893Z,11.25
2019-03-28T11:38:17.984Z,16.88
2019-03-28T11:39:16.968Z,16.88
2019-03-28T11:40:16.957Z,16.88
2019-03-28T11:41:16.956Z,16.88
2019-03-28T11:42:16.940Z,16.88
2019-03-28T11:43:16.925Z,16.88
2019-03-28T11:44:16.912Z,16.88
2019-03-28T11:45:16.909Z,16.88
2019-03-28T11:46:16.959Z,22.50
2019-03-28T11:47:16.900Z,22.50
2019-03-28T11:48:16.877Z,22.50
2019-03-28T11:49:16.862Z,28.12
2019-03-28T11:50:17.381Z,28.12
2019-03-28T11:51:16.848Z,28.12
2019-03-28T11:52:16.843Z,28.12
2019-03-28T11:53:16.822Z,28.12
2019-03-28T11:54:16.811Z,28.12
2019-03-28T11:55:16.797Z,28.12
2019-03-28T11:56:16.788Z,28.12
2019-03-28T11:57:16.943Z,28.12
2019-03-28T11:58:27.205Z,28.12
2019-03-28T11:59:16.754Z,28.12
2019-03-28T12:00:16.745Z,28.12
2019-03-28T12:01:16.740Z,22.50
2019-03-28T12:02:20.084Z,22.50
2019-03-28T12:03:16.739Z,22.50
2019-03-28T12:04:16.702Z,22.50
2019-03-28T12:05:16.694Z,22.50
2019-03-28T12:06:16.677Z,22.50
2019-03-28T12:07:16.668Z,22.50
2019-03-28T12:08:16.666Z,22.50
2019-03-28T12:09:16.716Z,22.50
2019-03-28T12:10:16.642Z,22.50
2019-03-28T12:11:16.624Z,22.50
2019-03-28T12:12:16.615Z,22.50
2019-03-28T12:13:16.617Z,28.12
2019-03-28T12:14:16.599Z,22.50
2019-03-28T12:15:16.624Z,28.12
2019-03-28T12:16:17.097Z,28.12
2019-03-28T12:17:16.561Z,22.50
2019-03-28T12:18:16.552Z,22.50
2019-03-28T12:19:17.861Z,16.88
2019-03-28T12:20:16.544Z,16.88
2019-03-28T12:21:16.532Z,16.88
2019-03-28T12:22:16.530Z,16.88
2019-03-28T12:23:16.521Z,11.25
2019-03-28T12:24:16.491Z,16.88
2019-03-28T12:25:16.485Z,11.25
2019-03-28T12:26:16.471Z,11.25
2019-03-28T12:27:16.453Z,11.25
2019-03-28T12:28:16.445Z,11.25
2019-03-28T12:29:26.622Z,11.25
2019-03-28T12:30:17.830Z,11.25
2019-03-28T12:31:16.420Z,11.25
2019-03-28T12:32:16.403Z,11.25
2019-03-28T12:33:16.394Z,11.25
2019-03-28T12:34:16.378Z,11.25
2019-03-28T12:35:16.371Z,11.25
2019-03-28T12:36:16.509Z,11.25
2019-03-28T12:37:16.347Z,11.25
2019-03-28T12:38:16.337Z,11.25
2019-03-28T12:39:16.326Z,11.25
2019-03-28T12:40:16.318Z,16.88
2019-03-28T12:41:16.307Z,16.88
2019-03-28T12:42:16.307Z,16.88
2019-03-28T12:43:16.280Z,16.88
2019-03-28T12:44:16.271Z,16.88
2019-03-28T12:45:16.274Z,16.88
2019-03-28T12:46:16.255Z,16.88
2019-03-28T12:47:16.254Z,16.88
2019-03-28T12:48:16.229Z,16.88
2019-03-28T12:49:16.221Z,22.50
2019-03-28T12:50:16.212Z,22.50
2019-03-28T12:51:16.201Z,22.50
2019-03-28T12:52:16.188Z,22.50
2019-03-28T12:53:16.217Z,28.12
2019-03-28T12:54:16.168Z,28.12
2019-03-28T12:55:16.160Z,22.50
2019-03-28T12:56:16.147Z,16.88
2019-03-28T12:57:16.135Z,16.88
2019-03-28T12:58:16.124Z,16.88
2019-03-28T12:59:16.130Z,16.88
2019-03-28T13:00:26.629Z,16.88
2019-03-28T13:01:16.086Z,16.88
2019-03-28T13:02:28.160Z,16.88
2019-03-28T13:03:17.072Z,11.25
2019-03-28T13:04:16.057Z,11.25
2019-03-28T13:05:16.127Z,11.25